createdAt,value
2023-05-06T00:03:00.333Z,55.80
2023-05-06T00:05:47.666Z,55.54
2023-05-06T00:08:34.274Z,55.64
2023-05-06T00:11:21.092Z,55.64
2023-05-06T00:14:07.339Z,55.58
2023-05-06T00:16:54.446Z,55.48
2023-05-06T00:19:40.803Z,55.20
2023-05-06T00:22:27.283Z,55.16
2023-05-06T00:25:13.918Z,55.19
2023-05-06T00:28:00.956Z,55.00
2023-05-06T00:30:47.495Z,54.96
2023-05-06T00:33:34.145Z,54.82
2023-05-06T00:36:20.607Z,54.58
2023-05-06T00:39:07.200Z,54.65
2023-05-06T00:41:54.633Z,54.56
2023-05-06T00:44:41.325Z,54.62
2023-05-06T00:47:27.966Z,54.52
2023-05-06T00:50:14.743Z,54.29
2023-05-06T00:53:04.160Z,54.46
2023-05-06T00:55:51.807Z,54.39
2023-05-06T00:58:38.964Z,53.98
2023-05-06T01:01:27.226Z,54.07
2023-05-06T01:04:13.900Z,54.17
2023-05-06T01:07:09.665Z,53.99
2023-05-06T01:10:06.894Z,53.69
2023-05-06T01:13:05.748Z,53.72
2023-05-06T01:15:54.867Z,53.50
2023-05-06T01:18:44.440Z,53.25
2023-05-06T01:21:35.004Z,53.17
2023-05-06T01:24:21.801Z,52.91
2023-05-06T01:27:10.521Z,52.73
2023-05-06T01:29:59.287Z,52.54
2023-05-06T01:33:19.069Z,52.44
2023-05-06T01:36:37.647Z,52.30
2023-05-06T01:39:31.113Z,52.29
2023-05-06T01:42:18.308Z,52.11
2023-05-06T01:45:07.109Z,51.60
2023-05-06T01:47:54.144Z,51.29
2023-05-06T01:50:41.740Z,51.30
2023-05-06T01:53:28.005Z,51.06
2023-05-06T01:56:14.589Z,51.16
2023-05-06T01:59:01.072Z,50.82
2023-05-06T02:01:47.536Z,50.34
2023-05-06T02:04:34.194Z,50.40
2023-05-06T02:07:21.182Z,49.99
2023-05-06T02:10:08.990Z,49.81
2023-05-06T02:12:57.675Z,49.84
2023-05-06T02:15:44.588Z,48.89
2023-05-06T02:18:35.425Z,49.01
2023-05-06T02:21:21.982Z,48.73
2023-05-06T02:24:08.482Z,48.70
2023-05-06T02:26:54.739Z,48.53
2023-05-06T02:29:41.075Z,48.13
2023-05-06T02:32:27.773Z,47.76
2023-05-06T02:35:14.501Z,47.59
2023-05-06T02:38:03.358Z,47.20
2023-05-06T02:40:50.158Z,46.90
2023-05-06T02:43:36.804Z,47.24
2023-05-06T02:46:25.013Z,46.99
2023-05-06T02:49:12.052Z,46.52
2023-05-06T02:51:58.984Z,46.61
2023-05-06T02:54:45.358Z,46.27
2023-05-06T02:57:31.916Z,46.09
2023-05-06T03:00:19.072Z,45.56
2023-05-06T03:03:05.767Z,45.73
2023-05-06T03:05:52.225Z,45.74
2023-05-06T03:08:39.314Z,45.52
2023-05-06T03:11:26.919Z,45.08
2023-05-06T03:14:13.672Z,44.95
2023-05-06T03:17:00.476Z,45.10
2023-05-06T03:19:46.803Z,45.07
2023-05-06T03:22:33.598Z,44.93
2023-05-06T03:25:20.189Z,44.75
2023-05-06T03:28:07.176Z,44.42
2023-05-06T03:30:53.903Z,44.41
2023-05-06T03:33:41.067Z,44.47
2023-05-06T03:36:29.615Z,44.45
2023-05-06T03:39:15.982Z,44.53
2023-05-06T03:42:02.679Z,44.38
2023-05-06T03:44:49.574Z,44.26
2023-05-06T03:47:37.152Z,44.14
2023-05-06T03:50:23.906Z,44.04
2023-05-06T03:53:11.896Z,43.82
2023-05-06T03:55:59.224Z,43.96
2023-05-06T03:58:46.321Z,43.61
2023-05-06T04:01:33.664Z,43.61
2023-05-06T04:04:20.240Z,43.59
2023-05-06T04:07:06.752Z,43.30
2023-05-06T04:09:53.189Z,43.14
2023-05-06T04:12:40.358Z,43.28
2023-05-06T04:15:26.764Z,43.15
2023-05-06T04:18:18.960Z,42.90
2023-05-06T04:21:12.237Z,42.78
2023-05-06T04:23:59.690Z,42.97
2023-05-06T04:26:52.023Z,42.94
2023-05-06T04:29:39.128Z,43.02
2023-05-06T04:32:25.717Z,42.65
2023-05-06T04:35:13.583Z,42.42
2023-05-06T04:38:00.174Z,42.17
2023-05-06T04:40:50.103Z,41.99
2023-05-06T04:43:36.811Z,42.10
2023-05-06T04:46:28.158Z,42.32
2023-05-06T04:49:14.739Z,42.06
2023-05-06T04:52:01.978Z,42.01
2023-05-06T04:54:48.585Z,41.77
2023-05-06T04:57:35.648Z,42.03
2023-05-06T05:00:22.932Z,41.79
2023-05-06T05:03:09.838Z,41.18
2023-05-06T05:05:57.900Z,41.45
2023-05-06T05:08:46.330Z,41.57
2023-05-06T05:11:33.149Z,41.22
2023-05-06T05:14:19.736Z,41.10
2023-05-06T05:17:06.614Z,41.26
2023-05-06T05:19:53.951Z,41.33
2023-05-06T05:22:40.980Z,41.17
2023-05-06T05:25:27.548Z,41.21
2023-05-06T05:28:14.115Z,41.27
2023-05-06T05:31:04.261Z,41.24
2023-05-06T05:33:52.882Z,40.98
2023-05-06T05:36:41.431Z,41.19
2023-05-06T05:39:29.016Z,41.23
2023-05-06T05:42:17.173Z,41.19
2023-05-06T05:45:04.370Z,41.19
2023-05-06T05:47:51.054Z,41.15
2023-05-06T05:50:38.024Z,41.10
2023-05-06T05:53:25.128Z,41.25
2023-05-06T05:56:11.881Z,41.09
2023-05-06T05:58:58.953Z,41.14
2023-05-06T06:01:45.606Z,41.34
2023-05-06T06:04:32.185Z,41.10
2023-05-06T06:07:19.222Z,41.12
2023-05-06T06:10:07.529Z,41.18
2023-05-06T06:12:54.342Z,41.35
2023-05-06T06:15:42.519Z,41.47
2023-05-06T06:18:29.234Z,41.41
2023-05-06T06:21:15.937Z,41.50
2023-05-06T06:24:02.520Z,41.56
2023-05-06T06:26:49.777Z,41.89
2023-05-06T06:29:36.151Z,41.99
2023-05-06T06:32:22.586Z,42.10
2023-05-06T06:35:09.275Z,42.28
2023-05-06T06:37:56.205Z,42.74
2023-05-06T06:40:42.690Z,43.05
2023-05-06T06:43:29.577Z,42.94
2023-05-06T06:46:21.537Z,43.22
2023-05-06T06:49:08.251Z,43.43
2023-05-06T06:51:57.464Z,43.58
2023-05-06T06:54:44.027Z,43.78
2023-05-06T06:57:30.693Z,44.24
2023-05-06T07:00:17.324Z,44.64
2023-05-06T07:03:03.890Z,45.01
2023-05-06T07:05:50.544Z,45.71
2023-05-06T07:08:37.095Z,45.72
2023-05-06T07:11:23.928Z,46.60
2023-05-06T07:14:11.711Z,47.59
2023-05-06T07:16:58.095Z,48.01
2023-05-06T07:19:44.374Z,48.35
2023-05-06T07:22:31.036Z,49.03
2023-05-06T07:25:17.634Z,48.99
2023-05-06T07:28:04.405Z,49.38
2023-05-06T07:30:52.112Z,49.68
2023-05-06T07:33:38.602Z,50.68
2023-05-06T07:36:27.035Z,51.09
2023-05-06T07:39:14.085Z,51.73
2023-05-06T07:42:01.908Z,52.49
2023-05-06T07:44:48.307Z,52.98
2023-05-06T07:47:35.662Z,53.91
2023-05-06T07:50:22.565Z,55.31
2023-05-06T07:53:09.189Z,55.57
2023-05-06T07:56:02.052Z,56.25
2023-05-06T07:58:49.441Z,56.86
2023-05-06T08:01:36.172Z,57.67
2023-05-06T08:04:23.162Z,57.49
2023-05-06T08:07:10.617Z,58.16
2023-05-06T08:09:57.166Z,58.60
2023-05-06T08:12:43.737Z,58.60
2023-05-06T08:15:30.307Z,59.61
2023-05-06T08:18:22.324Z,59.41
2023-05-06T08:21:09.797Z,59.92
2023-05-06T08:23:56.400Z,60.03
2023-05-06T08:26:42.733Z,60.19
2023-05-06T08:29:29.255Z,60.99
2023-05-06T08:32:15.835Z,60.79
2023-05-06T08:35:02.404Z,60.79
2023-05-06T08:37:49.011Z,61.56
2023-05-06T08:40:44.640Z,61.74
2023-05-06T08:43:33.623Z,61.71
2023-05-06T08:46:20.160Z,61.98
2023-05-06T08:49:06.556Z,62.42
2023-05-06T08:51:53.112Z,62.94
2023-05-06T08:54:41.463Z,62.92
2023-05-06T08:57:30.578Z,63.41
2023-05-06T09:00:17.588Z,64.08
2023-05-06T09:03:04.072Z,64.33
2023-05-06T09:05:50.893Z,64.32
2023-05-06T09:08:37.429Z,64.59
2023-05-06T09:11:26.477Z,64.67
2023-05-06T09:14:17.764Z,64.65
2023-05-06T09:17:04.263Z,64.97
2023-05-06T09:19:57.216Z,64.69
2023-05-06T09:22:43.687Z,64.89
2023-05-06T09:25:30.494Z,65.07
2023-05-06T09:28:16.978Z,65.26
2023-05-06T09:31:03.849Z,65.19
2023-05-06T09:33:51.186Z,65.74
2023-05-06T09:36:38.016Z,65.97
2023-05-06T09:39:27.784Z,65.79
2023-05-06T09:42:14.482Z,66.17
2023-05-06T09:45:07.539Z,66.10
2023-05-06T09:47:54.902Z,66.46
2023-05-06T09:50:43.670Z,66.72
2023-05-06T09:53:32.749Z,67.06
2023-05-06T09:56:21.521Z,67.32
2023-05-06T09:59:08.366Z,67.90
2023-05-06T10:01:55.615Z,67.80
2023-05-06T10:04:43.076Z,68.11
2023-05-06T10:07:30.698Z,67.90
2023-05-06T10:10:18.215Z,68.28
2023-05-06T10:13:04.640Z,68.04
2023-05-06T10:15:52.103Z,68.33
2023-05-06T10:18:39.918Z,68.02
2023-05-06T10:21:32.423Z,68.24
2023-05-06T10:24:26.280Z,68.50
2023-05-06T10:27:14.102Z,68.32
2023-05-06T10:30:01.126Z,68.72
2023-05-06T10:32:48.253Z,68.53
2023-05-06T10:35:44.289Z,68.39
2023-05-06T10:38:35.890Z,68.47
2023-05-06T10:41:24.117Z,68.40
2023-05-06T10:44:10.900Z,68.11
2023-05-06T10:47:00.575Z,68.38
2023-05-06T10:50:20.055Z,68.74
2023-05-06T10:53:06.596Z,68.76
2023-05-06T10:56:09.057Z,68.66
2023-05-06T10:58:56.729Z,68.81
2023-05-06T11:01:44.521Z,68.90
2023-05-06T11:04:31.675Z,69.09
2023-05-06T11:07:23.341Z,69.38
2023-05-06T11:10:12.037Z,69.73
2023-05-06T11:12:59.086Z,69.83
2023-05-06T11:15:50.864Z,70.13
2023-05-06T11:18:40.102Z,70.04
2023-05-06T11:21:32.951Z,70.11
2023-05-06T11:24:43.901Z,70.24
2023-05-06T11:27:30.845Z,70.29
2023-05-06T11:30:17.429Z,70.27
2023-05-06T11:33:05.737Z,70.44
2023-05-06T11:35:53.224Z,70.53
2023-05-06T11:38:51.469Z,70.43
2023-05-06T11:41:41.398Z,70.53
2023-05-06T11:44:30.899Z,70.59
2023-05-06T11:47:17.166Z,70.78
2023-05-06T11:50:07.486Z,70.94
2023-05-06T11:52:54.074Z,70.93
2023-05-06T11:55:41.600Z,71.08
2023-05-06T11:58:29.327Z,71.11
2023-05-06T12:01:15.581Z,71.32
2023-05-06T12:04:02.328Z,71.15
2023-05-06T12:06:50.178Z,71.54
2023-05-06T12:09:45.699Z,71.17
2023-05-06T12:12:33.436Z,71.33
2023-05-06T12:15:20.287Z,71.46
2023-05-06T12:18:07.153Z,71.31
2023-05-06T12:20:54.876Z,71.13
2023-05-06T12:23:52.562Z,71.58
2023-05-06T12:26:44.472Z,71.53
2023-05-06T12:29:32.438Z,71.73
2023-05-06T12:32:18.858Z,71.29
2023-05-06T12:35:07.504Z,71.46
2023-05-06T12:37:54.428Z,71.44
2023-05-06T12:40:42.235Z,71.60
2023-05-06T12:43:33.218Z,71.74
2023-05-06T12:46:19.970Z,71.32
2023-05-06T12:49:06.667Z,71.79
2023-05-06T12:52:06.941Z,71.47
2023-05-06T12:54:53.377Z,71.72
2023-05-06T12:57:39.668Z,71.52
2023-05-06T13:00:25.732Z,71.46
2023-05-06T13:03:15.310Z,71.84
2023-05-06T13:06:01.970Z,72.19
2023-05-06T13:08:48.151Z,71.91
2023-05-06T13:11:35.372Z,71.51
2023-05-06T13:14:22.654Z,71.82
2023-05-06T13:17:09.435Z,71.56
2023-05-06T13:19:57.184Z,71.65
2023-05-06T13:22:54.337Z,71.65
2023-05-06T13:25:55.873Z,71.23
2023-05-06T13:28:47.631Z,70.98
2023-05-06T13:31:34.980Z,71.33
2023-05-06T13:34:21.808Z,71.31
2023-05-06T13:37:08.084Z,71.18
2023-05-06T13:39:54.512Z,71.35
2023-05-06T13:42:41.127Z,71.33
2023-05-06T13:45:27.509Z,71.11
2023-05-06T13:48:14.512Z,71.11
2023-05-06T13:51:01.083Z,71.15
2023-05-06T13:53:47.979Z,71.14
2023-05-06T13:56:35.051Z,70.91
2023-05-06T13:59:21.931Z,70.93
2023-05-06T14:02:09.807Z,71.12
2023-05-06T14:04:56.660Z,71.12
2023-05-06T14:07:43.198Z,70.37
2023-05-06T14:10:29.810Z,70.53
2023-05-06T14:13:16.170Z,70.08
2023-05-06T14:16:02.913Z,70.55
2023-05-06T14:18:49.255Z,69.89
2023-05-06T14:21:35.825Z,69.89
2023-05-06T14:24:22.165Z,70.13
2023-05-06T14:27:08.708Z,70.24
2023-05-06T14:29:55.134Z,70.68
2023-05-06T14:32:41.589Z,70.34
2023-05-06T14:35:28.131Z,70.75
2023-05-06T14:38:14.747Z,70.62
2023-05-06T14:41:01.154Z,70.90
2023-05-06T14:43:48.043Z,71.17
2023-05-06T14:46:34.714Z,70.86
2023-05-06T14:49:21.260Z,71.28
2023-05-06T14:52:07.816Z,71.34
2023-05-06T14:54:54.436Z,71.28
2023-05-06T14:57:40.777Z,70.93
2023-05-06T15:00:27.804Z,71.31
2023-05-06T15:03:14.416Z,70.80
2023-05-06T15:06:00.928Z,71.13
2023-05-06T15:08:47.622Z,71.18
2023-05-06T15:11:34.053Z,71.15
2023-05-06T15:14:20.733Z,71.25
2023-05-06T15:17:07.588Z,71.33
2023-05-06T15:19:54.500Z,71.20
2023-05-06T15:22:40.963Z,71.46
2023-05-06T15:25:34.813Z,71.02
2023-05-06T15:28:24.237Z,71.24
2023-05-06T15:31:11.116Z,70.98
2023-05-06T15:34:00.356Z,71.57
2023-05-06T15:36:52.762Z,71.45
2023-05-06T15:39:39.280Z,71.81
2023-05-06T15:42:25.872Z,71.98
2023-05-06T15:45:12.664Z,72.07
2023-05-06T15:47:59.044Z,72.23
2023-05-06T15:50:45.867Z,72.51
2023-05-06T15:53:32.320Z,72.83
2023-05-06T15:56:19.333Z,73.04
2023-05-06T15:59:08.119Z,73.12
2023-05-06T16:04:44.972Z,73.36
2023-05-06T16:07:32.257Z,73.25
2023-05-06T16:10:18.634Z,73.45
2023-05-06T16:13:05.301Z,73.64
2023-05-06T16:15:52.725Z,73.44
2023-05-06T16:18:39.169Z,73.57
2023-05-06T16:21:25.347Z,73.69
2023-05-06T16:24:11.596Z,73.46
2023-05-06T16:26:58.034Z,73.52
2023-05-06T16:29:44.683Z,73.98
2023-05-06T16:32:31.490Z,73.82
2023-05-06T16:35:18.385Z,73.90
2023-05-06T16:38:04.966Z,73.87
2023-05-06T16:40:51.663Z,73.89
2023-05-06T16:43:38.125Z,73.96
2023-05-06T16:46:24.792Z,74.16
2023-05-06T16:49:11.645Z,74.28
2023-05-06T16:51:58.437Z,74.12
2023-05-06T16:54:45.090Z,74.01
2023-05-06T16:57:31.461Z,74.12
2023-05-06T17:00:18.234Z,73.72
2023-05-06T17:03:04.943Z,73.75
2023-05-06T17:05:51.636Z,74.20
2023-05-06T17:08:37.840Z,73.81
2023-05-06T17:11:24.741Z,74.20
2023-05-06T17:14:11.630Z,74.24
2023-05-06T17:17:02.220Z,74.37
2023-05-06T17:19:48.665Z,74.08
2023-05-06T17:22:35.844Z,74.12
2023-05-06T17:25:23.350Z,74.28
2023-05-06T17:28:09.538Z,74.10
2023-05-06T17:30:56.194Z,74.07
2023-05-06T17:33:44.232Z,73.81
2023-05-06T17:36:31.321Z,74.31
2023-05-06T17:39:17.788Z,74.20
2023-05-06T17:42:04.274Z,74.28
2023-05-06T17:44:50.562Z,74.35
2023-05-06T17:47:37.003Z,74.48
2023-05-06T17:50:23.823Z,74.25
2023-05-06T17:53:10.610Z,74.54
2023-05-06T17:55:57.039Z,74.95
2023-05-06T17:58:43.522Z,74.76
2023-05-06T18:01:29.774Z,74.77
2023-05-06T18:04:16.348Z,75.16
2023-05-06T18:07:02.893Z,75.34
2023-05-06T18:09:52.055Z,75.42
2023-05-06T18:12:38.718Z,75.37
2023-05-06T18:15:25.726Z,75.28
2023-05-06T18:18:12.419Z,75.23
2023-05-06T18:20:58.707Z,75.28
2023-05-06T18:23:45.278Z,75.14
2023-05-06T18:26:43.331Z,75.30
2023-05-06T18:29:33.237Z,75.16
2023-05-06T18:32:20.006Z,75.37
2023-05-06T18:35:06.891Z,75.64
2023-05-06T18:37:53.583Z,75.50
2023-05-06T18:40:39.804Z,75.53
2023-05-06T18:43:26.526Z,75.59
2023-05-06T18:46:12.718Z,75.53
2023-05-06T18:49:00.828Z,75.39
2023-05-06T18:51:47.135Z,75.49
2023-05-06T18:54:33.742Z,75.65
2023-05-06T18:57:20.356Z,75.86
2023-05-06T19:00:08.909Z,75.87
2023-05-06T19:02:55.463Z,75.84
2023-05-06T19:05:41.974Z,75.67
2023-05-06T19:08:29.476Z,75.54
2023-05-06T19:11:18.215Z,75.58
2023-05-06T19:14:04.661Z,75.48
2023-05-06T19:16:51.498Z,75.47
2023-05-06T19:19:37.870Z,75.31
2023-05-06T19:22:24.197Z,75.43
2023-05-06T19:25:11.200Z,75.69
2023-05-06T19:27:58.456Z,75.75
2023-05-06T19:30:45.663Z,75.92
2023-05-06T19:33:32.439Z,75.99
2023-05-06T19:36:18.757Z,75.93
2023-05-06T19:39:05.781Z,75.91
2023-05-06T19:41:53.900Z,75.80
2023-05-06T19:44:42.765Z,75.76
2023-05-06T19:47:29.702Z,75.67
2023-05-06T19:50:16.266Z,75.64
2023-05-06T19:53:03.466Z,75.94
2023-05-06T19:55:50.104Z,76.21
2023-05-06T19:58:36.600Z,76.29
2023-05-06T20:01:24.396Z,76.37
2023-05-06T20:04:10.997Z,76.50
2023-05-06T20:06:57.940Z,76.52
2023-05-06T20:09:44.604Z,76.49
2023-05-06T20:12:30.997Z,76.57
2023-05-06T20:15:17.625Z,76.46
2023-05-06T20:18:04.689Z,76.50
2023-05-06T20:20:51.276Z,76.31
2023-05-06T20:23:37.884Z,76.27
2023-05-06T20:26:25.030Z,76.35
2023-05-06T20:29:11.490Z,76.30
2023-05-06T20:31:58.887Z,76.16
2023-05-06T20:34:45.558Z,76.19
2023-05-06T20:37:35.325Z,76.10
2023-05-06T20:40:21.904Z,76.10
2023-05-06T20:43:08.760Z,76.14
2023-05-06T20:45:55.982Z,76.28
2023-05-06T20:48:43.154Z,76.56
2023-05-06T20:51:29.521Z,76.50
2023-05-06T20:54:16.238Z,76.56
2023-05-06T20:57:02.740Z,76.54
2023-05-06T20:59:52.781Z,76.55
2023-05-06T21:02:41.263Z,76.48
2023-05-06T21:05:28.297Z,76.75
2023-05-06T21:08:15.069Z,76.87
2023-05-06T21:11:01.568Z,76.94
2023-05-06T21:13:49.512Z,77.07
2023-05-06T21:16:39.797Z,77.03
2023-05-06T21:19:26.856Z,76.87
2023-05-06T21:22:13.300Z,76.68
2023-05-06T21:25:00.055Z,76.41
2023-05-06T21:27:47.054Z,76.47
2023-05-06T21:30:35.263Z,76.44
2023-05-06T21:33:21.640Z,76.97
2023-05-06T21:36:08.242Z,76.86
2023-05-06T21:39:06.574Z,76.78
2023-05-06T21:41:53.120Z,76.60
2023-05-06T21:44:39.565Z,76.84
2023-05-06T21:47:25.963Z,76.86
2023-05-06T21:50:12.628Z,77.04
2023-05-06T21:52:58.981Z,77.25
2023-05-06T21:55:45.594Z,77.21
2023-05-06T21:58:32.463Z,77.12
2023-05-06T22:01:19.209Z,77.20
2023-05-06T22:04:11.503Z,77.26
2023-05-06T22:06:58.487Z,77.02
2023-05-06T22:09:45.405Z,77.15
2023-05-06T22:12:32.541Z,77.08
2023-05-06T22:15:19.522Z,77.13
2023-05-06T22:18:07.261Z,77.28
2023-05-06T22:20:56.799Z,76.94
2023-05-06T22:23:43.368Z,77.03
2023-05-06T22:26:32.880Z,76.97
2023-05-06T22:29:19.148Z,76.76
2023-05-06T22:32:06.409Z,76.63
2023-05-06T22:34:52.776Z,76.76
2023-05-06T22:37:39.182Z,76.71
2023-05-06T22:40:27.766Z,76.69
2023-05-06T22:43:13.959Z,76.73
2023-05-06T22:46:00.751Z,76.68
2023-05-06T22:48:47.615Z,76.79
2023-05-06T22:51:35.081Z,76.70
2023-05-06T22:54:22.340Z,77.04
2023-05-06T22:57:09.003Z,77.32
2023-05-06T22:59:55.497Z,77.44
2023-05-06T23:02:41.774Z,77.36
2023-05-06T23:05:28.389Z,77.37
2023-05-06T23:08:15.494Z,77.31
2023-05-06T23:11:02.068Z,77.39
2023-05-06T23:13:48.712Z,77.54
2023-05-06T23:16:35.241Z,77.45
2023-05-06T23:19:21.872Z,77.43
2023-05-06T23:22:08.402Z,77.47
2023-05-06T23:24:55.874Z,77.53
2023-05-06T23:27:43.325Z,77.57
2023-05-06T23:30:30.310Z,77.54
2023-05-06T23:33:17.223Z,77.69
2023-05-06T23:36:03.871Z,77.76
2023-05-06T23:38:50.131Z,77.68
2023-05-06T23:41:36.552Z,77.60
2023-05-06T23:44:23.090Z,77.65
2023-05-06T23:47:09.354Z,77.60
2023-05-06T23:49:55.795Z,77.60
2023-05-06T23:52:42.272Z,77.54
2023-05-06T23:55:29.301Z,77.89
2023-05-06T23:58:15.733Z,77.78
